createdAt,value
2023-01-25T00:01:51.548Z,2.30
2023-01-25T00:06:54.184Z,2.30
2023-01-25T00:11:58.178Z,2.40
2023-01-25T00:17:00.463Z,2.40
2023-01-25T00:22:02.764Z,2.20
2023-01-25T00:27:05.148Z,2.50
2023-01-25T00:32:27.563Z,2.40
2023-01-25T00:37:37.429Z,2.20
2023-01-25T00:42:40.086Z,2.30
2023-01-25T00:47:42.489Z,2.20
2023-01-25T00:52:45.466Z,2.10
2023-01-25T00:57:47.830Z,2.40
2023-01-25T01:02:50.622Z,2.20
2023-01-25T01:07:55.958Z,2.20
2023-01-25T01:12:58.419Z,2.20
2023-01-25T01:18:00.717Z,2.40
2023-01-25T01:23:03.290Z,2.40
2023-01-25T01:28:05.571Z,2.40
2023-01-25T01:33:08.788Z,2.10
2023-01-25T01:38:11.127Z,2.10
2023-01-25T01:43:19.353Z,2.10
2023-01-25T01:48:40.203Z,2.10
2023-01-25T01:53:57.939Z,2.20
2023-01-25T01:59:01.255Z,2.20
2023-01-25T02:04:07.097Z,2.10
2023-01-25T02:09:11.425Z,2.10
2023-01-25T02:14:15.492Z,2.10
2023-01-25T02:19:38.346Z,2.10
2023-01-25T02:24:50.798Z,2.20
2023-01-25T02:29:53.171Z,2.20
2023-01-25T02:34:55.610Z,2.20
2023-01-25T02:39:57.982Z,2.20
2023-01-25T02:45:03.274Z,2.00
2023-01-25T02:50:06.154Z,2.00
2023-01-25T02:55:09.517Z,2.00
2023-01-25T03:00:14.746Z,2.10
2023-01-25T03:05:17.663Z,2.00
2023-01-25T03:10:20.162Z,2.00
2023-01-25T03:15:23.803Z,2.00
2023-01-25T03:20:26.224Z,2.00
2023-01-25T03:25:28.829Z,2.10
2023-01-25T03:30:42.108Z,2.10
2023-01-25T03:35:44.456Z,2.10
2023-01-25T03:40:47.775Z,2.20
2023-01-25T03:45:55.391Z,2.10
2023-01-25T03:51:00.206Z,2.10
2023-01-25T03:56:09.830Z,2.20
2023-01-25T04:01:13.931Z,2.20
2023-01-25T04:06:16.314Z,2.20
2023-01-25T04:11:19.697Z,2.10
2023-01-25T04:16:24.064Z,1.90
2023-01-25T04:21:49.380Z,2.00
2023-01-25T04:26:53.635Z,1.90
2023-01-25T04:31:56.431Z,2.00
2023-01-25T04:36:59.546Z,2.10
2023-01-25T04:42:06.450Z,2.10
2023-01-25T04:47:09.235Z,2.10
2023-01-25T04:52:11.639Z,2.10
2023-01-25T04:57:14.515Z,1.90
2023-01-25T05:02:23.263Z,1.90
2023-01-25T05:07:25.812Z,2.00
2023-01-25T05:12:28.206Z,1.90
2023-01-25T05:17:35.614Z,1.90
2023-01-25T05:22:37.994Z,1.80
2023-01-25T05:27:40.355Z,1.80
2023-01-25T05:33:18.703Z,1.80
2023-01-25T05:38:21.358Z,1.90
2023-01-25T05:43:24.324Z,2.00
2023-01-25T05:48:26.961Z,2.00
2023-01-25T05:53:29.666Z,1.80
2023-01-25T05:58:32.671Z,1.90
2023-01-25T06:03:35.431Z,1.90
2023-01-25T06:08:38.408Z,2.00
2023-01-25T06:13:46.358Z,1.90
2023-01-25T06:18:49.574Z,2.00
2023-01-25T06:24:20.733Z,2.00
2023-01-25T06:29:23.037Z,2.00
2023-01-25T06:34:25.399Z,1.90
2023-01-25T06:39:29.760Z,1.80
2023-01-25T06:44:32.151Z,2.00
2023-01-25T06:49:34.462Z,2.00
2023-01-25T06:54:36.725Z,2.00
2023-01-25T06:59:39.064Z,2.00
2023-01-25T07:04:41.497Z,2.00
2023-01-25T07:09:44.668Z,2.00
2023-01-25T07:14:48.580Z,1.90
2023-01-25T07:19:50.958Z,1.90
2023-01-25T07:24:53.979Z,2.00
2023-01-25T07:29:56.409Z,2.10
2023-01-25T07:35:02.820Z,2.20
2023-01-25T07:40:05.589Z,2.20
2023-01-25T07:45:09.120Z,2.20
2023-01-25T07:50:11.851Z,2.20
2023-01-25T07:55:14.241Z,2.00
2023-01-25T08:00:16.988Z,2.00
2023-01-25T08:05:19.755Z,2.00
2023-01-25T08:10:22.741Z,2.00
2023-01-25T08:15:25.061Z,2.00
2023-01-25T08:20:27.553Z,2.00
2023-01-25T08:25:29.937Z,2.00
2023-01-25T08:30:32.363Z,2.00
2023-01-25T08:35:36.842Z,2.00
2023-01-25T08:40:39.288Z,2.00
2023-01-25T08:45:41.661Z,2.10
2023-01-25T08:50:47.452Z,2.20
2023-01-25T08:55:49.833Z,2.10
2023-01-25T09:00:52.137Z,2.10
2023-01-25T09:05:54.874Z,2.10
2023-01-25T09:11:02.894Z,2.00
2023-01-25T09:16:11.219Z,1.90
2023-01-25T09:21:16.560Z,1.80
2023-01-25T09:26:19.415Z,1.80
2023-01-25T09:31:24.042Z,1.80
2023-01-25T09:36:50.059Z,1.90
2023-01-25T09:42:20.479Z,2.00
2023-01-25T09:47:49.258Z,2.10
2023-01-25T09:53:12.991Z,2.10
2023-01-25T09:58:20.194Z,2.00
2023-01-25T10:03:53.600Z,2.00
2023-01-25T10:09:27.532Z,2.10
2023-01-25T10:14:35.645Z,2.10
2023-01-25T10:19:59.888Z,2.00
2023-01-25T10:25:24.176Z,2.10
2023-01-25T10:30:28.294Z,2.20
2023-01-25T10:35:41.245Z,2.40
2023-01-25T10:40:52.600Z,2.10
2023-01-25T10:45:54.978Z,2.20
2023-01-25T10:50:57.985Z,2.40
2023-01-25T10:56:09.733Z,2.40
2023-01-25T11:01:28.924Z,2.30
2023-01-25T11:06:38.010Z,2.30
2023-01-25T11:11:41.473Z,2.40
2023-01-25T11:16:50.469Z,2.30
2023-01-25T11:21:54.908Z,2.40
2023-01-25T11:27:21.495Z,2.50
2023-01-25T11:32:25.285Z,2.40
2023-01-25T11:37:58.593Z,2.50
2023-01-25T11:43:30.269Z,2.50
2023-01-25T11:48:47.769Z,2.50
2023-01-25T11:54:00.454Z,2.60
2023-01-25T11:59:37.042Z,2.60
2023-01-25T12:05:09.689Z,2.60
2023-01-25T12:10:34.266Z,2.60
2023-01-25T12:16:02.447Z,2.50
2023-01-25T12:21:22.952Z,2.60
2023-01-25T12:26:49.064Z,2.40
2023-01-25T12:32:07.218Z,2.40
2023-01-25T12:37:21.622Z,2.40
2023-01-25T12:42:36.588Z,2.40
2023-01-25T12:47:55.399Z,2.40
2023-01-25T12:53:16.592Z,2.40
2023-01-25T12:58:36.953Z,2.50
2023-01-25T13:04:04.213Z,2.50
2023-01-25T13:09:24.992Z,2.50
2023-01-25T13:14:37.052Z,2.50
2023-01-25T13:19:42.751Z,2.50
2023-01-25T13:25:03.974Z,2.50
2023-01-25T13:30:31.199Z,2.50
2023-01-25T13:35:41.640Z,2.60
2023-01-25T13:40:44.138Z,2.40
2023-01-25T13:45:50.586Z,2.60
2023-01-25T13:50:59.407Z,2.40
2023-01-25T13:56:02.868Z,2.50
2023-01-25T14:01:13.232Z,2.60
2023-01-25T14:06:31.076Z,2.60
2023-01-25T14:11:36.633Z,2.50
2023-01-25T14:16:39.381Z,2.70
2023-01-25T14:21:41.957Z,2.70
2023-01-25T14:26:47.409Z,2.60
2023-01-25T14:31:51.756Z,2.60
2023-01-25T14:37:26.378Z,2.50
2023-01-25T14:42:28.818Z,2.50
2023-01-25T14:47:32.516Z,2.40
2023-01-25T14:52:35.390Z,2.40
2023-01-25T14:57:40.697Z,2.40
2023-01-25T15:02:55.122Z,2.40
2023-01-25T15:08:13.177Z,2.40
2023-01-25T15:13:15.721Z,2.40
2023-01-25T15:18:46.040Z,2.20
2023-01-25T15:23:49.845Z,2.20
2023-01-25T15:29:04.357Z,2.40
2023-01-25T15:34:06.805Z,2.20
2023-01-25T15:39:17.480Z,2.30
2023-01-25T15:44:20.497Z,2.40
2023-01-25T15:49:28.645Z,2.30
2023-01-25T15:54:30.942Z,2.30
2023-01-25T15:59:33.465Z,2.30
2023-01-25T16:04:37.868Z,2.20
2023-01-25T16:09:40.340Z,2.30
2023-01-25T16:14:42.802Z,2.30
2023-01-25T16:19:47.940Z,2.50
2023-01-25T16:24:50.653Z,2.50
2023-01-25T16:29:53.380Z,2.40
2023-01-25T16:34:55.694Z,2.30
2023-01-25T16:39:58.282Z,2.40
2023-01-25T16:45:00.615Z,2.50
2023-01-25T16:50:02.957Z,2.50
2023-01-25T16:55:05.604Z,2.50
2023-01-25T17:00:11.014Z,2.40
2023-01-25T17:05:13.520Z,2.20
2023-01-25T17:10:16.174Z,2.10
2023-01-25T17:15:20.482Z,2.30
2023-01-25T17:20:22.855Z,2.20
2023-01-25T17:25:25.860Z,2.20
2023-01-25T17:30:28.222Z,2.40
2023-01-25T17:35:30.550Z,2.40
2023-01-25T17:40:35.575Z,2.50
2023-01-25T17:45:40.852Z,2.50
2023-01-25T17:50:43.210Z,2.40
2023-01-25T17:55:45.537Z,2.40
2023-01-25T18:00:47.877Z,2.40
2023-01-25T18:05:50.972Z,2.40
2023-01-25T18:10:53.323Z,2.40
2023-01-25T18:15:55.975Z,2.50
2023-01-25T18:21:07.764Z,2.60
2023-01-25T18:26:18.666Z,2.50
2023-01-25T18:31:21.573Z,2.20
2023-01-25T18:36:24.044Z,2.30
2023-01-25T18:41:26.422Z,2.50
2023-01-25T18:46:28.860Z,2.60
2023-01-25T18:51:31.232Z,2.60
2023-01-25T18:56:33.536Z,2.60
2023-01-25T19:01:35.916Z,2.60
2023-01-25T19:06:38.291Z,2.50
2023-01-25T19:11:40.593Z,2.60
2023-01-25T19:16:42.924Z,2.70
2023-01-25T19:21:45.235Z,2.70
2023-01-25T19:26:48.201Z,2.60
2023-01-25T19:31:50.622Z,2.60
2023-01-25T19:36:53.895Z,2.60
2023-01-25T19:41:56.352Z,2.50
2023-01-25T19:46:58.762Z,2.30
2023-01-25T19:52:01.139Z,2.50
2023-01-25T19:57:03.423Z,2.50
2023-01-25T20:02:06.222Z,2.60
2023-01-25T20:07:08.605Z,2.50
2023-01-25T20:12:10.936Z,2.50
2023-01-25T20:17:14.170Z,2.60
2023-01-25T20:22:16.499Z,2.60
2023-01-25T20:27:19.692Z,2.50
2023-01-25T20:32:32.476Z,2.30
2023-01-25T20:37:35.593Z,2.30
2023-01-25T20:42:37.967Z,2.50
2023-01-25T20:47:40.292Z,2.60
2023-01-25T20:52:42.639Z,2.50
2023-01-25T20:57:45.146Z,2.70
2023-01-25T21:02:47.422Z,2.60
2023-01-25T21:07:49.701Z,2.50
2023-01-25T21:12:52.106Z,2.40
2023-01-25T21:17:54.537Z,2.40
2023-01-25T21:22:56.854Z,2.30
2023-01-25T21:27:59.263Z,2.40
2023-01-25T21:33:01.588Z,2.50
2023-01-25T21:38:03.994Z,2.60
2023-01-25T21:43:06.932Z,2.50
2023-01-25T21:48:09.362Z,2.60
2023-01-25T21:53:11.707Z,2.60
2023-01-25T21:58:14.389Z,2.60
2023-01-25T22:03:16.739Z,2.50
2023-01-25T22:08:20.081Z,2.60
2023-01-25T22:13:22.390Z,2.50
2023-01-25T22:18:24.722Z,2.60
2023-01-25T22:23:28.775Z,2.60
2023-01-25T22:28:34.858Z,2.60
2023-01-25T22:33:37.134Z,2.60
2023-01-25T22:38:39.540Z,2.50
2023-01-25T22:43:42.230Z,2.70
2023-01-25T22:48:45.299Z,2.60
2023-01-25T22:53:47.853Z,2.60
2023-01-25T22:58:51.127Z,2.50
2023-01-25T23:03:53.989Z,2.60
2023-01-25T23:08:59.769Z,2.60
2023-01-25T23:14:21.545Z,2.70
2023-01-25T23:19:26.367Z,2.80
2023-01-25T23:24:28.781Z,2.70
2023-01-25T23:29:31.416Z,2.70
2023-01-25T23:34:37.088Z,2.70
2023-01-25T23:39:39.422Z,2.60
2023-01-25T23:44:42.041Z,2.70
2023-01-25T23:49:44.394Z,2.70
2023-01-25T23:54:46.690Z,2.70
2023-01-25T23:59:49.158Z,2.70
